sensor_id;sensor_type;location;lat;lon;timestamp;P1;durP1;ratioP1;P2;durP2;ratioP2
41667;SDS011;27356;50.920;5.350;2023-02-01T00:01:28;29.75;;;8.80;;
41667;SDS011;27356;50.920;5.350;2023-02-01T00:03:54;31.38;;;10.10;;
41667;SDS011;27356;50.920;5.350;2023-02-01T00:06:20;25.52;;;9.13;;
41667;SDS011;27356;50.920;5.350;2023-02-01T00:08:46;24.75;;;10.63;;
41667;SDS011;27356;50.920;5.350;2023-02-01T00:11:12;26.77;;;9.65;;
41667;SDS011;27356;50.920;5.350;2023-02-01T00:13:39;31.65;;;10.45;;
41667;SDS011;27356;50.920;5.350;2023-02-01T00:16:10;30.85;;;11.07;;
41667;SDS011;27356;50.920;5.350;2023-02-01T00:18:44;26.92;;;10.27;;
41667;SDS011;27356;50.920;5.350;2023-02-01T00:21:11;26.98;;;11.15;;
41667;SDS011;27356;50.920;5.350;2023-02-01T00:23:38;33.00;;;11.00;;
41667;SDS011;27356;50.920;5.350;2023-02-01T00:26:04;29.88;;;11.15;;
41667;SDS011;27356;50.920;5.350;2023-02-01T00:28:31;28.92;;;12.40;;
41667;SDS011;27356;50.920;5.350;2023-02-01T00:30:58;37.33;;;12.13;;
41667;SDS011;27356;50.920;5.350;2023-02-01T00:33:28;42.03;;;13.25;;
41667;SDS011;27356;50.920;5.350;2023-02-01T00:35:57;34.03;;;12.82;;
41667;SDS011;27356;50.920;5.350;2023-02-01T00:38:25;32.25;;;11.77;;
41667;SDS011;27356;50.920;5.350;2023-02-01T00:40:51;33.40;;;11.95;;
41667;SDS011;27356;50.920;5.350;2023-02-01T00:43:16;27.45;;;12.18;;
41667;SDS011;27356;50.920;5.350;2023-02-01T00:45:42;29.05;;;12.70;;
41667;SDS011;27356;50.920;5.350;2023-02-01T00:48:08;33.47;;;12.15;;
41667;SDS011;27356;50.920;5.350;2023-02-01T00:50:33;29.98;;;13.38;;
41667;SDS011;27356;50.920;5.350;2023-02-01T00:52:59;32.50;;;12.02;;
41667;SDS011;27356;50.920;5.350;2023-02-01T00:55:25;32.30;;;11.55;;
41667;SDS011;27356;50.920;5.350;2023-02-01T00:57:50;39.78;;;11.52;;
41667;SDS011;27356;50.920;5.350;2023-02-01T01:00:16;28.58;;;11.57;;
41667;SDS011;27356;50.920;5.350;2023-02-01T01:02:42;37.95;;;11.02;;
41667;SDS011;27356;50.920;5.350;2023-02-01T01:05:08;27.75;;;11.43;;
41667;SDS011;27356;50.920;5.350;2023-02-01T01:07:33;24.92;;;11.45;;
41667;SDS011;27356;50.920;5.350;2023-02-01T01:09:59;28.77;;;10.82;;
41667;SDS011;27356;50.920;5.350;2023-02-01T01:12:25;25.02;;;10.55;;
41667;SDS011;27356;50.920;5.350;2023-02-01T01:14:51;27.63;;;10.50;;
41667;SDS011;27356;50.920;5.350;2023-02-01T01:17:16;34.40;;;11.07;;
41667;SDS011;27356;50.920;5.350;2023-02-01T01:19:42;33.97;;;9.93;;
41667;SDS011;27356;50.920;5.350;2023-02-01T01:22:08;30.05;;;9.00;;
41667;SDS011;27356;50.920;5.350;2023-02-01T01:24:33;30.90;;;11.02;;
41667;SDS011;27356;50.920;5.350;2023-02-01T01:26:59;26.88;;;9.70;;
41667;SDS011;27356;50.920;5.350;2023-02-01T01:29:25;19.92;;;9.55;;
41667;SDS011;27356;50.920;5.350;2023-02-01T01:31:51;25.02;;;9.68;;
41667;SDS011;27356;50.920;5.350;2023-02-01T01:34:16;22.42;;;9.45;;
41667;SDS011;27356;50.920;5.350;2023-02-01T01:36:42;28.67;;;9.90;;
41667;SDS011;27356;50.920;5.350;2023-02-01T01:39:08;26.35;;;9.82;;
41667;SDS011;27356;50.920;5.350;2023-02-01T01:41:33;32.47;;;11.00;;
41667;SDS011;27356;50.920;5.350;2023-02-01T01:46:36;30.65;;;11.00;;
41667;SDS011;27356;50.920;5.350;2023-02-01T01:51:31;33.85;;;10.50;;
41667;SDS011;27356;50.920;5.350;2023-02-01T01:56:30;38.40;;;10.95;;
41667;SDS011;27356;50.920;5.350;2023-02-01T01:58:58;29.63;;;11.20;;
41667;SDS011;27356;50.920;5.350;2023-02-01T02:01:24;31.48;;;10.80;;
41667;SDS011;27356;50.920;5.350;2023-02-01T02:03:50;43.05;;;11.90;;
41667;SDS011;27356;50.920;5.350;2023-02-01T02:08:46;31.58;;;11.93;;
41667;SDS011;27356;50.920;5.350;2023-02-01T02:11:15;28.60;;;11.85;;
41667;SDS011;27356;50.920;5.350;2023-02-01T02:13:42;30.95;;;11.98;;
41667;SDS011;27356;50.920;5.350;2023-02-01T02:35:43;34.20;;;9.55;;
41667;SDS011;27356;50.920;5.350;2023-02-01T02:41:13;24.10;;;6.65;;
41667;SDS011;27356;50.920;5.350;2023-02-01T02:44:08;30.52;;;6.25;;
41667;SDS011;27356;50.920;5.350;2023-02-01T02:47:21;34.45;;;6.13;;
41667;SDS011;27356;50.920;5.350;2023-02-01T02:49:58;21.20;;;5.10;;
41667;SDS011;27356;50.920;5.350;2023-02-01T02:52:46;23.02;;;5.63;;
41667;SDS011;27356;50.920;5.350;2023-02-01T02:55:37;29.50;;;4.75;;
41667;SDS011;27356;50.920;5.350;2023-02-01T02:58:05;27.45;;;5.25;;
41667;SDS011;27356;50.920;5.350;2023-02-01T03:00:53;23.92;;;3.78;;
41667;SDS011;27356;50.920;5.350;2023-02-01T03:03:40;27.92;;;4.05;;
41667;SDS011;27356;50.920;5.350;2023-02-01T03:06:25;21.13;;;3.80;;
41667;SDS011;27356;50.920;5.350;2023-02-01T03:08:53;22.58;;;3.55;;
41667;SDS011;27356;50.920;5.350;2023-02-01T03:11:22;20.70;;;3.33;;
41667;SDS011;27356;50.920;5.350;2023-02-01T03:14:10;17.83;;;3.67;;
41667;SDS011;27356;50.920;5.350;2023-02-01T03:16:50;20.38;;;2.95;;
41667;SDS011;27356;50.920;5.350;2023-02-01T03:27:02;24.00;;;3.05;;
41667;SDS011;27356;50.920;5.350;2023-02-01T03:32:30;21.37;;;4.33;;
41667;SDS011;27356;50.920;5.350;2023-02-01T03:35:20;25.88;;;3.38;;
41667;SDS011;27356;50.920;5.350;2023-02-01T03:37:52;16.30;;;2.47;;
41667;SDS011;27356;50.920;5.350;2023-02-01T03:40:27;19.55;;;3.33;;
41667;SDS011;27356;50.920;5.350;2023-02-01T03:42:57;20.60;;;3.15;;
41667;SDS011;27356;50.920;5.350;2023-02-01T03:45:27;14.65;;;2.95;;
41667;SDS011;27356;50.920;5.350;2023-02-01T03:48:00;24.25;;;3.13;;
41667;SDS011;27356;50.920;5.350;2023-02-01T03:50:27;15.38;;;3.28;;
41667;SDS011;27356;50.920;5.350;2023-02-01T03:52:57;22.95;;;4.78;;
41667;SDS011;27356;50.920;5.350;2023-02-01T03:55:29;22.77;;;3.72;;
41667;SDS011;27356;50.920;5.350;2023-02-01T04:03:21;18.95;;;3.13;;
41667;SDS011;27356;50.920;5.350;2023-02-01T04:05:51;25.38;;;3.95;;
41667;SDS011;27356;50.920;5.350;2023-02-01T04:08:18;17.08;;;2.95;;
41667;SDS011;27356;50.920;5.350;2023-02-01T04:10:45;21.50;;;3.92;;
41667;SDS011;27356;50.920;5.350;2023-02-01T04:13:10;14.70;;;3.33;;
41667;SDS011;27356;50.920;5.350;2023-02-01T04:15:36;23.88;;;3.08;;
41667;SDS011;27356;50.920;5.350;2023-02-01T04:18:02;17.20;;;3.15;;
41667;SDS011;27356;50.920;5.350;2023-02-01T04:20:28;23.15;;;3.83;;
41667;SDS011;27356;50.920;5.350;2023-02-01T04:22:54;15.13;;;2.92;;
41667;SDS011;27356;50.920;5.350;2023-02-01T04:25:19;27.02;;;5.15;;
41667;SDS011;27356;50.920;5.350;2023-02-01T04:27:45;19.38;;;4.03;;
41667;SDS011;27356;50.920;5.350;2023-02-01T04:30:11;22.27;;;3.08;;
41667;SDS011;27356;50.920;5.350;2023-02-01T04:32:38;20.67;;;3.15;;
41667;SDS011;27356;50.920;5.350;2023-02-01T04:35:04;19.13;;;2.85;;
41667;SDS011;27356;50.920;5.350;2023-02-01T04:37:30;19.23;;;2.83;;
41667;SDS011;27356;50.920;5.350;2023-02-01T04:39:56;18.17;;;2.65;;
41667;SDS011;27356;50.920;5.350;2023-02-01T04:42:21;18.98;;;2.67;;
41667;SDS011;27356;50.920;5.350;2023-02-01T04:44:47;19.10;;;3.75;;
41667;SDS011;27356;50.920;5.350;2023-02-01T04:47:13;24.52;;;3.47;;
41667;SDS011;27356;50.920;5.350;2023-02-01T04:49:40;17.80;;;2.95;;
41667;SDS011;27356;50.920;5.350;2023-02-01T04:52:06;19.02;;;3.25;;
41667;SDS011;27356;50.920;5.350;2023-02-01T04:54:32;22.38;;;3.20;;
41667;SDS011;27356;50.920;5.350;2023-02-01T04:56:58;16.95;;;2.75;;
41667;SDS011;27356;50.920;5.350;2023-02-01T04:59:23;22.40;;;3.78;;
41667;SDS011;27356;50.920;5.350;2023-02-01T05:01:50;26.67;;;3.85;;
41667;SDS011;27356;50.920;5.350;2023-02-01T05:04:15;27.73;;;4.70;;
41667;SDS011;27356;50.920;5.350;2023-02-01T05:06:43;16.73;;;3.38;;
41667;SDS011;27356;50.920;5.350;2023-02-01T05:09:09;26.13;;;4.60;;
41667;SDS011;27356;50.920;5.350;2023-02-01T05:11:35;20.25;;;5.15;;
41667;SDS011;27356;50.920;5.350;2023-02-01T05:14:19;19.35;;;3.20;;
41667;SDS011;27356;50.920;5.350;2023-02-01T05:16:45;20.75;;;3.28;;
41667;SDS011;27356;50.920;5.350;2023-02-01T05:19:10;20.45;;;3.83;;
41667;SDS011;27356;50.920;5.350;2023-02-01T05:21:36;16.30;;;3.10;;
41667;SDS011;27356;50.920;5.350;2023-02-01T05:24:02;20.20;;;3.28;;
41667;SDS011;27356;50.920;5.350;2023-02-01T05:26:45;34.10;;;3.50;;
41667;SDS011;27356;50.920;5.350;2023-02-01T05:29:12;20.23;;;2.85;;
41667;SDS011;27356;50.920;5.350;2023-02-01T05:31:38;17.30;;;3.15;;
41667;SDS011;27356;50.920;5.350;2023-02-01T05:34:04;21.52;;;3.60;;
41667;SDS011;27356;50.920;5.350;2023-02-01T05:36:30;25.58;;;3.15;;
41667;SDS011;27356;50.920;5.350;2023-02-01T05:38:56;26.75;;;3.78;;
41667;SDS011;27356;50.920;5.350;2023-02-01T05:41:22;35.28;;;4.55;;
41667;SDS011;27356;50.920;5.350;2023-02-01T05:43:48;19.73;;;3.00;;
41667;SDS011;27356;50.920;5.350;2023-02-01T05:46:14;20.88;;;3.10;;
41667;SDS011;27356;50.920;5.350;2023-02-01T05:48:40;16.83;;;3.38;;
41667;SDS011;27356;50.920;5.350;2023-02-01T05:51:06;28.10;;;3.72;;
41667;SDS011;27356;50.920;5.350;2023-02-01T05:53:32;21.75;;;3.90;;
41667;SDS011;27356;50.920;5.350;2023-02-01T05:55:58;28.20;;;3.58;;
41667;SDS011;27356;50.920;5.350;2023-02-01T05:58:24;26.77;;;3.85;;
41667;SDS011;27356;50.920;5.350;2023-02-01T06:00:49;33.92;;;4.55;;
41667;SDS011;27356;50.920;5.350;2023-02-01T06:03:15;21.63;;;4.03;;
41667;SDS011;27356;50.920;5.350;2023-02-01T06:05:43;24.48;;;3.65;;
41667;SDS011;27356;50.920;5.350;2023-02-01T06:08:09;25.63;;;3.85;;
41667;SDS011;27356;50.920;5.350;2023-02-01T06:10:36;20.08;;;2.50;;
41667;SDS011;27356;50.920;5.350;2023-02-01T06:13:01;22.85;;;4.07;;
41667;SDS011;27356;50.920;5.350;2023-02-01T06:15:28;23.08;;;4.22;;
41667;SDS011;27356;50.920;5.350;2023-02-01T06:17:53;30.88;;;3.90;;
41667;SDS011;27356;50.920;5.350;2023-02-01T06:20:19;23.20;;;3.13;;
41667;SDS011;27356;50.920;5.350;2023-02-01T06:22:46;24.27;;;4.03;;
41667;SDS011;27356;50.920;5.350;2023-02-01T06:25:12;25.20;;;3.75;;
41667;SDS011;27356;50.920;5.350;2023-02-01T06:27:37;24.30;;;3.33;;
41667;SDS011;27356;50.920;5.350;2023-02-01T06:30:04;33.92;;;4.15;;
41667;SDS011;27356;50.920;5.350;2023-02-01T06:32:31;26.90;;;4.07;;
41667;SDS011;27356;50.920;5.350;2023-02-01T06:34:57;27.15;;;5.45;;
41667;SDS011;27356;50.920;5.350;2023-02-01T06:37:24;24.52;;;4.18;;
41667;SDS011;27356;50.920;5.350;2023-02-01T06:39:50;22.27;;;3.40;;
41667;SDS011;27356;50.920;5.350;2023-02-01T06:42:16;24.85;;;4.40;;
41667;SDS011;27356;50.920;5.350;2023-02-01T06:44:42;21.92;;;4.55;;
41667;SDS011;27356;50.920;5.350;2023-02-01T06:47:08;24.73;;;4.07;;
41667;SDS011;27356;50.920;5.350;2023-02-01T06:49:33;29.73;;;4.70;;
41667;SDS011;27356;50.920;5.350;2023-02-01T06:52:02;24.00;;;3.67;;
41667;SDS011;27356;50.920;5.350;2023-02-01T06:54:29;28.02;;;5.47;;
41667;SDS011;27356;50.920;5.350;2023-02-01T06:56:57;33.10;;;6.20;;
41667;SDS011;27356;50.920;5.350;2023-02-01T06:59:23;22.15;;;5.20;;
41667;SDS011;27356;50.920;5.350;2023-02-01T07:01:49;27.15;;;5.28;;
41667;SDS011;27356;50.920;5.350;2023-02-01T07:04:14;20.17;;;4.43;;
41667;SDS011;27356;50.920;5.350;2023-02-01T07:06:40;30.23;;;6.25;;
41667;SDS011;27356;50.920;5.350;2023-02-01T07:09:06;25.48;;;4.93;;
41667;SDS011;27356;50.920;5.350;2023-02-01T07:11:33;31.48;;;5.95;;
41667;SDS011;27356;50.920;5.350;2023-02-01T07:13:59;22.55;;;6.75;;
41667;SDS011;27356;50.920;5.350;2023-02-01T07:16:25;22.02;;;4.75;;
41667;SDS011;27356;50.920;5.350;2023-02-01T07:18:51;26.38;;;5.35;;
41667;SDS011;27356;50.920;5.350;2023-02-01T07:21:17;38.97;;;5.35;;
41667;SDS011;27356;50.920;5.350;2023-02-01T07:23:43;32.97;;;7.70;;
41667;SDS011;27356;50.920;5.350;2023-02-01T07:26:11;34.42;;;7.57;;
41667;SDS011;27356;50.920;5.350;2023-02-01T07:28:38;29.17;;;8.10;;
41667;SDS011;27356;50.920;5.350;2023-02-01T07:31:08;25.77;;;7.68;;
41667;SDS011;27356;50.920;5.350;2023-02-01T07:33:40;23.25;;;6.72;;
41667;SDS011;27356;50.920;5.350;2023-02-01T07:36:07;22.90;;;5.90;;
41667;SDS011;27356;50.920;5.350;2023-02-01T07:38:36;22.67;;;6.22;;
41667;SDS011;27356;50.920;5.350;2023-02-01T07:41:02;28.95;;;4.93;;
41667;SDS011;27356;50.920;5.350;2023-02-01T07:43:29;22.70;;;3.67;;
41667;SDS011;27356;50.920;5.350;2023-02-01T07:45:56;20.65;;;3.45;;
41667;SDS011;27356;50.920;5.350;2023-02-01T07:48:22;18.05;;;3.90;;
41667;SDS011;27356;50.920;5.350;2023-02-01T07:51:02;30.83;;;3.65;;
41667;SDS011;27356;50.920;5.350;2023-02-01T07:53:30;40.28;;;4.55;;
41667;SDS011;27356;50.920;5.350;2023-02-01T07:55:57;22.98;;;4.07;;
41667;SDS011;27356;50.920;5.350;2023-02-01T07:58:23;18.27;;;4.40;;
41667;SDS011;27356;50.920;5.350;2023-02-01T08:00:49;23.98;;;3.72;;
41667;SDS011;27356;50.920;5.350;2023-02-01T08:03:34;30.85;;;3.50;;
41667;SDS011;27356;50.920;5.350;2023-02-01T08:06:00;25.77;;;3.72;;
41667;SDS011;27356;50.920;5.350;2023-02-01T08:08:25;25.98;;;4.85;;
41667;SDS011;27356;50.920;5.350;2023-02-01T08:10:56;27.80;;;4.97;;
41667;SDS011;27356;50.920;5.350;2023-02-01T08:13:22;21.58;;;4.10;;
41667;SDS011;27356;50.920;5.350;2023-02-01T08:15:48;25.50;;;3.03;;
41667;SDS011;27356;50.920;5.350;2023-02-01T08:18:13;22.85;;;3.97;;
41667;SDS011;27356;50.920;5.350;2023-02-01T08:20:41;17.73;;;3.38;;
41667;SDS011;27356;50.920;5.350;2023-02-01T08:23:08;28.25;;;3.83;;
41667;SDS011;27356;50.920;5.350;2023-02-01T08:25:34;23.67;;;4.32;;
41667;SDS011;27356;50.920;5.350;2023-02-01T08:28:01;29.00;;;4.68;;
41667;SDS011;27356;50.920;5.350;2023-02-01T08:30:27;27.95;;;4.00;;
41667;SDS011;27356;50.920;5.350;2023-02-01T08:32:53;24.92;;;3.80;;
41667;SDS011;27356;50.920;5.350;2023-02-01T08:35:19;25.80;;;3.88;;
41667;SDS011;27356;50.920;5.350;2023-02-01T08:37:45;21.88;;;3.33;;
41667;SDS011;27356;50.920;5.350;2023-02-01T08:40:10;24.83;;;4.30;;
41667;SDS011;27356;50.920;5.350;2023-02-01T08:42:39;21.33;;;3.08;;
41667;SDS011;27356;50.920;5.350;2023-02-01T08:45:18;22.27;;;2.72;;
41667;SDS011;27356;50.920;5.350;2023-02-01T08:47:46;29.77;;;4.85;;
41667;SDS011;27356;50.920;5.350;2023-02-01T08:50:13;19.55;;;3.42;;
41667;SDS011;27356;50.920;5.350;2023-02-01T08:52:39;26.25;;;5.32;;
41667;SDS011;27356;50.920;5.350;2023-02-01T08:55:05;27.48;;;4.88;;
41667;SDS011;27356;50.920;5.350;2023-02-01T08:57:32;20.92;;;4.20;;
41667;SDS011;27356;50.920;5.350;2023-02-01T08:59:58;20.65;;;3.85;;
41667;SDS011;27356;50.920;5.350;2023-02-01T09:02:25;17.75;;;3.13;;
41667;SDS011;27356;50.920;5.350;2023-02-01T09:04:51;26.10;;;3.60;;
41667;SDS011;27356;50.920;5.350;2023-02-01T09:07:17;18.63;;;3.75;;
41667;SDS011;27356;50.920;5.350;2023-02-01T09:09:43;19.92;;;2.85;;
41667;SDS011;27356;50.920;5.350;2023-02-01T09:12:10;27.85;;;4.53;;
41667;SDS011;27356;50.920;5.350;2023-02-01T09:14:36;27.30;;;4.88;;
41667;SDS011;27356;50.920;5.350;2023-02-01T09:17:04;16.52;;;2.90;;
41667;SDS011;27356;50.920;5.350;2023-02-01T09:19:30;21.60;;;3.05;;
41667;SDS011;27356;50.920;5.350;2023-02-01T09:21:59;24.00;;;4.38;;
41667;SDS011;27356;50.920;5.350;2023-02-01T09:24:25;33.10;;;4.72;;
41667;SDS011;27356;50.920;5.350;2023-02-01T09:26:53;20.05;;;3.65;;
41667;SDS011;27356;50.920;5.350;2023-02-01T09:29:19;22.85;;;3.85;;
41667;SDS011;27356;50.920;5.350;2023-02-01T09:31:47;24.70;;;3.00;;
41667;SDS011;27356;50.920;5.350;2023-02-01T09:34:13;27.95;;;3.83;;
41667;SDS011;27356;50.920;5.350;2023-02-01T09:36:39;24.75;;;3.85;;
41667;SDS011;27356;50.920;5.350;2023-02-01T09:39:05;18.27;;;3.80;;
41667;SDS011;27356;50.920;5.350;2023-02-01T09:47:15;22.27;;;2.92;;
41667;SDS011;27356;50.920;5.350;2023-02-01T09:50:03;20.40;;;4.03;;
41667;SDS011;27356;50.920;5.350;2023-02-01T09:55:41;19.88;;;3.78;;
41667;SDS011;27356;50.920;5.350;2023-02-01T10:01:01;25.60;;;4.30;;
41667;SDS011;27356;50.920;5.350;2023-02-01T10:03:32;23.50;;;3.17;;
41667;SDS011;27356;50.920;5.350;2023-02-01T10:06:04;17.85;;;3.30;;
41667;SDS011;27356;50.920;5.350;2023-02-01T10:11:13;19.55;;;3.00;;
41667;SDS011;27356;50.920;5.350;2023-02-01T10:14:17;17.73;;;2.92;;
41667;SDS011;27356;50.920;5.350;2023-02-01T10:16:56;18.42;;;3.72;;
41667;SDS011;27356;50.920;5.350;2023-02-01T10:19:37;19.33;;;3.40;;
41667;SDS011;27356;50.920;5.350;2023-02-01T10:22:44;24.08;;;3.67;;
41667;SDS011;27356;50.920;5.350;2023-02-01T10:28:14;23.42;;;4.43;;
41667;SDS011;27356;50.920;5.350;2023-02-01T10:30:45;17.85;;;2.85;;
41667;SDS011;27356;50.920;5.350;2023-02-01T10:33:14;21.33;;;4.13;;
41667;SDS011;27356;50.920;5.350;2023-02-01T10:35:50;22.13;;;3.05;;
41667;SDS011;27356;50.920;5.350;2023-02-01T10:38:29;23.15;;;3.42;;
41667;SDS011;27356;50.920;5.350;2023-02-01T10:40:59;20.80;;;3.47;;
41667;SDS011;27356;50.920;5.350;2023-02-01T10:43:28;21.10;;;4.22;;
41667;SDS011;27356;50.920;5.350;2023-02-01T10:45:55;22.95;;;4.10;;
41667;SDS011;27356;50.920;5.350;2023-02-01T10:48:22;21.30;;;3.97;;
41667;SDS011;27356;50.920;5.350;2023-02-01T10:50:49;19.40;;;4.22;;
41667;SDS011;27356;50.920;5.350;2023-02-01T10:55:47;19.55;;;3.05;;
41667;SDS011;27356;50.920;5.350;2023-02-01T10:58:15;21.10;;;2.75;;
41667;SDS011;27356;50.920;5.350;2023-02-01T11:01:08;28.25;;;4.00;;
41667;SDS011;27356;50.920;5.350;2023-02-01T11:03:45;16.83;;;3.67;;
41667;SDS011;27356;50.920;5.350;2023-02-01T11:12:20;16.25;;;3.95;;
41667;SDS011;27356;50.920;5.350;2023-02-01T11:14:30;13.90;;;2.85;;
41667;SDS011;27356;50.920;5.350;2023-02-01T11:17:12;16.08;;;2.88;;
41667;SDS011;27356;50.920;5.350;2023-02-01T11:19:56;20.40;;;3.35;;
41667;SDS011;27356;50.920;5.350;2023-02-01T11:22:24;13.68;;;3.28;;
41667;SDS011;27356;50.920;5.350;2023-02-01T11:24:51;21.02;;;3.60;;
41667;SDS011;27356;50.920;5.350;2023-02-01T11:27:18;15.85;;;3.65;;
41667;SDS011;27356;50.920;5.350;2023-02-01T11:29:47;16.63;;;2.97;;
41667;SDS011;27356;50.920;5.350;2023-02-01T11:32:17;14.85;;;2.75;;
41667;SDS011;27356;50.920;5.350;2023-02-01T11:37:20;17.42;;;3.15;;
41667;SDS011;27356;50.920;5.350;2023-02-01T11:39:56;15.70;;;2.78;;
41667;SDS011;27356;50.920;5.350;2023-02-01T11:42:24;17.58;;;2.70;;
41667;SDS011;27356;50.920;5.350;2023-02-01T11:44:51;13.77;;;2.45;;
41667;SDS011;27356;50.920;5.350;2023-02-01T11:47:43;19.67;;;2.58;;
41667;SDS011;27356;50.920;5.350;2023-02-01T11:50:18;23.00;;;3.35;;
41667;SDS011;27356;50.920;5.350;2023-02-01T12:03:49;13.40;;;2.35;;
41667;SDS011;27356;50.920;5.350;2023-02-01T12:06:50;13.32;;;2.25;;
41667;SDS011;27356;50.920;5.350;2023-02-01T12:17:28;17.23;;;2.50;;
41667;SDS011;27356;50.920;5.350;2023-02-01T12:25:46;15.15;;;2.20;;
41667;SDS011;27356;50.920;5.350;2023-02-01T12:36:07;21.58;;;3.47;;
41667;SDS011;27356;50.920;5.350;2023-02-01T12:38:46;21.88;;;3.38;;
41667;SDS011;27356;50.920;5.350;2023-02-01T12:44:08;18.42;;;2.10;;
41667;SDS011;27356;50.920;5.350;2023-02-01T12:47:01;12.60;;;1.90;;
41667;SDS011;27356;50.920;5.350;2023-02-01T12:49:38;20.35;;;3.50;;
41667;SDS011;27356;50.920;5.350;2023-02-01T12:52:38;12.82;;;1.83;;
41667;SDS011;27356;50.920;5.350;2023-02-01T12:58:06;16.42;;;2.42;;
41667;SDS011;27356;50.920;5.350;2023-02-01T13:00:57;17.70;;;2.45;;
41667;SDS011;27356;50.920;5.350;2023-02-01T13:03:38;14.63;;;2.55;;
41667;SDS011;27356;50.920;5.350;2023-02-01T13:06:15;20.73;;;2.38;;
41667;SDS011;27356;50.920;5.350;2023-02-01T13:11:39;12.13;;;2.25;;
41667;SDS011;27356;50.920;5.350;2023-02-01T13:17:02;15.85;;;2.58;;
41667;SDS011;27356;50.920;5.350;2023-02-01T13:19:50;15.63;;;2.17;;
41667;SDS011;27356;50.920;5.350;2023-02-01T13:22:23;11.98;;;2.47;;
41667;SDS011;27356;50.920;5.350;2023-02-01T13:25:00;13.00;;;2.08;;
41667;SDS011;27356;50.920;5.350;2023-02-01T13:27:36;28.02;;;3.00;;
41667;SDS011;27356;50.920;5.350;2023-02-01T13:43:34;12.43;;;1.80;;
41667;SDS011;27356;50.920;5.350;2023-02-01T13:46:08;14.32;;;2.17;;
41667;SDS011;27356;50.920;5.350;2023-02-01T13:54:00;17.73;;;2.08;;
41667;SDS011;27356;50.920;5.350;2023-02-01T13:56:25;15.98;;;3.22;;
41667;SDS011;27356;50.920;5.350;2023-02-01T13:58:52;14.82;;;2.75;;
41667;SDS011;27356;50.920;5.350;2023-02-01T14:19:21;14.90;;;2.08;;
41667;SDS011;27356;50.920;5.350;2023-02-01T14:21:53;10.90;;;1.38;;
41667;SDS011;27356;50.920;5.350;2023-02-01T14:24:24;11.63;;;2.22;;
41667;SDS011;27356;50.920;5.350;2023-02-01T14:26:56;6.70;;;1.50;;
41667;SDS011;27356;50.920;5.350;2023-02-01T14:29:56;15.30;;;2.25;;
41667;SDS011;27356;50.920;5.350;2023-02-01T14:32:25;18.27;;;2.30;;
41667;SDS011;27356;50.920;5.350;2023-02-01T14:35:24;10.05;;;1.45;;
41667;SDS011;27356;50.920;5.350;2023-02-01T14:37:51;9.88;;;2.13;;
41667;SDS011;27356;50.920;5.350;2023-02-01T14:40:26;14.45;;;1.95;;
41667;SDS011;27356;50.920;5.350;2023-02-01T14:42:53;12.57;;;2.25;;
41667;SDS011;27356;50.920;5.350;2023-02-01T14:47:55;11.40;;;3.30;;
41667;SDS011;27356;50.920;5.350;2023-02-01T14:50:49;13.37;;;1.93;;
41667;SDS011;27356;50.920;5.350;2023-02-01T14:55:50;13.23;;;2.80;;
41667;SDS011;27356;50.920;5.350;2023-02-01T14:58:32;13.88;;;1.80;;
41667;SDS011;27356;50.920;5.350;2023-02-01T15:01:03;16.05;;;2.25;;
41667;SDS011;27356;50.920;5.350;2023-02-01T15:06:16;15.75;;;2.10;;
41667;SDS011;27356;50.920;5.350;2023-02-01T15:08:52;10.98;;;1.88;;
41667;SDS011;27356;50.920;5.350;2023-02-01T15:11:21;15.23;;;2.00;;
41667;SDS011;27356;50.920;5.350;2023-02-01T15:13:50;17.73;;;2.63;;
41667;SDS011;27356;50.920;5.350;2023-02-01T15:16:19;23.88;;;2.00;;
41667;SDS011;27356;50.920;5.350;2023-02-01T15:18:47;18.75;;;3.15;;
41667;SDS011;27356;50.920;5.350;2023-02-01T15:24:14;10.70;;;2.13;;
41667;SDS011;27356;50.920;5.350;2023-02-01T15:26:44;12.48;;;2.05;;
41667;SDS011;27356;50.920;5.350;2023-02-01T15:29:11;12.80;;;2.50;;
41667;SDS011;27356;50.920;5.350;2023-02-01T15:31:39;13.15;;;1.85;;
41667;SDS011;27356;50.920;5.350;2023-02-01T15:34:12;16.80;;;2.72;;
41667;SDS011;27356;50.920;5.350;2023-02-01T15:36:39;13.40;;;2.03;;
41667;SDS011;27356;50.920;5.350;2023-02-01T15:41:52;13.10;;;3.28;;
41667;SDS011;27356;50.920;5.350;2023-02-01T15:44:40;11.48;;;1.65;;
41667;SDS011;27356;50.920;5.350;2023-02-01T15:47:25;13.38;;;1.95;;
41667;SDS011;27356;50.920;5.350;2023-02-01T15:49:54;21.05;;;2.78;;
41667;SDS011;27356;50.920;5.350;2023-02-01T15:55:04;19.55;;;3.10;;
41667;SDS011;27356;50.920;5.350;2023-02-01T15:57:43;16.33;;;3.13;;
41667;SDS011;27356;50.920;5.350;2023-02-01T16:00:21;9.50;;;1.88;;
41667;SDS011;27356;50.920;5.350;2023-02-01T16:02:55;13.77;;;2.20;;
41667;SDS011;27356;50.920;5.350;2023-02-01T16:07:59;14.60;;;2.53;;
41667;SDS011;27356;50.920;5.350;2023-02-01T16:10:29;14.25;;;2.35;;
41667;SDS011;27356;50.920;5.350;2023-02-01T16:12:55;13.88;;;2.00;;
41667;SDS011;27356;50.920;5.350;2023-02-01T16:15:25;11.95;;;2.45;;
41667;SDS011;27356;50.920;5.350;2023-02-01T16:17:51;13.57;;;2.47;;
41667;SDS011;27356;50.920;5.350;2023-02-01T16:20:17;21.05;;;2.75;;
41667;SDS011;27356;50.920;5.350;2023-02-01T16:22:43;23.08;;;3.00;;
41667;SDS011;27356;50.920;5.350;2023-02-01T16:25:15;22.17;;;2.33;;
41667;SDS011;27356;50.920;5.350;2023-02-01T16:30:15;13.70;;;2.00;;
41667;SDS011;27356;50.920;5.350;2023-02-01T16:32:45;14.63;;;2.45;;
41667;SDS011;27356;50.920;5.350;2023-02-01T16:35:17;16.30;;;2.17;;
41667;SDS011;27356;50.920;5.350;2023-02-01T16:37:53;11.75;;;2.47;;
41667;SDS011;27356;50.920;5.350;2023-02-01T16:40:25;11.15;;;2.15;;
41667;SDS011;27356;50.920;5.350;2023-02-01T16:42:52;8.57;;;1.92;;
41667;SDS011;27356;50.920;5.350;2023-02-01T16:45:22;23.95;;;2.97;;
41667;SDS011;27356;50.920;5.350;2023-02-01T16:47:49;11.10;;;2.25;;
41667;SDS011;27356;50.920;5.350;2023-02-01T16:52:49;12.57;;;2.08;;
41667;SDS011;27356;50.920;5.350;2023-02-01T16:55:18;18.92;;;3.20;;
41667;SDS011;27356;50.920;5.350;2023-02-01T16:57:49;16.40;;;2.67;;
41667;SDS011;27356;50.920;5.350;2023-02-01T17:00:15;17.38;;;3.10;;
41667;SDS011;27356;50.920;5.350;2023-02-01T17:02:42;9.98;;;2.25;;
41667;SDS011;27356;50.920;5.350;2023-02-01T17:05:08;14.90;;;2.58;;
41667;SDS011;27356;50.920;5.350;2023-02-01T17:07:35;25.15;;;3.80;;
41667;SDS011;27356;50.920;5.350;2023-02-01T17:10:03;19.17;;;3.75;;
41667;SDS011;27356;50.920;5.350;2023-02-01T17:12:31;26.75;;;4.05;;
41667;SDS011;27356;50.920;5.350;2023-02-01T17:14:58;22.27;;;4.78;;
41667;SDS011;27356;50.920;5.350;2023-02-01T17:17:25;15.10;;;3.05;;
41667;SDS011;27356;50.920;5.350;2023-02-01T17:19:57;18.58;;;3.30;;
41667;SDS011;27356;50.920;5.350;2023-02-01T17:22:23;19.27;;;4.63;;
41667;SDS011;27356;50.920;5.350;2023-02-01T17:24:49;16.08;;;2.75;;
41667;SDS011;27356;50.920;5.350;2023-02-01T17:27:15;23.08;;;3.30;;
41667;SDS011;27356;50.920;5.350;2023-02-01T17:29:42;13.25;;;2.63;;
41667;SDS011;27356;50.920;5.350;2023-02-01T17:32:13;18.33;;;3.17;;
41667;SDS011;27356;50.920;5.350;2023-02-01T17:34:43;20.17;;;3.08;;
41667;SDS011;27356;50.920;5.350;2023-02-01T17:37:24;20.90;;;3.25;;
41667;SDS011;27356;50.920;5.350;2023-02-01T17:42:20;17.85;;;2.90;;
41667;SDS011;27356;50.920;5.350;2023-02-01T17:44:47;19.13;;;4.00;;
41667;SDS011;27356;50.920;5.350;2023-02-01T17:47:13;17.92;;;3.05;;
41667;SDS011;27356;50.920;5.350;2023-02-01T17:49:41;22.75;;;3.33;;
41667;SDS011;27356;50.920;5.350;2023-02-01T17:52:09;14.52;;;2.83;;
41667;SDS011;27356;50.920;5.350;2023-02-01T17:54:40;25.77;;;2.78;;